This is the latest recevied weather packets stored in our database for station/object SV2RIM-2. If no packets are shown the sender has not sent any weather packets the latest 10 day(s).
| Time | Temp. | Humidity | Pressure | Rain* | Wind** | Luminosity | Snow |
|---|---|---|---|---|---|---|---|
| 1777548919 | 23.33° C | 47% | 1014.7 hPa | - | - | - | - |
| 1777548319 | 22.78° C | 47% | 1014.8 hPa | - | - | - | - |
| 1777547719 | 22.22° C | 49% | 1014.8 hPa | - | - | - | - |
| 1777547119 | 22.22° C | 49% | 1014.8 hPa | - | - | - | - |
| 1777546519 | 22.22° C | 50% | 1014.8 hPa | - | - | - | - |
| 1777545919 | 22.78° C | 51% | 1015 hPa | - | - | - | - |
| 1777545319 | 23.89° C | 48% | 1015.1 hPa | - | - | - | - |
| 1777544719 | 23.89° C | 49% | 1015.1 hPa | - | - | - | - |
| 1777544119 | 23.33° C | 50% | 1015.2 hPa | - | - | - | - |
| 1777543519 | 23.89° C | 49% | 1015.2 hPa | - | - | - | - |
| 1777542919 | 23.89° C | 49% | 1015.4 hPa | - | - | - | - |
| 1777542319 | 23.89° C | 47% | 1015.5 hPa | - | - | - | - |
| 1777541719 | 23.33° C | 48% | 1015.6 hPa | - | - | - | - |
| 1777541119 | 22.78° C | 50% | 1015.6 hPa | - | - | - | - |
| 1777540519 | 21.67° C | 53% | 1015.7 hPa | - | - | - | - |
| 1777539919 | 22.22° C | 52% | 1015.8 hPa | - | - | - | - |
| 1777539319 | 22.22° C | 51% | 1015.9 hPa | - | - | - | - |
| 1777538719 | 22.78° C | 49% | 1015.8 hPa | - | - | - | - |
| 1777538119 | 21.11° C | 53% | 1015.9 hPa | - | - | - | - |
| 1777537519 | 21.11° C | 53% | 1016.1 hPa | - | - | - | - |
| 1777536919 | 21.67° C | 51% | 1016.1 hPa | - | - | - | - |
| 1777536319 | 21.11° C | 51% | 1016.1 hPa | - | - | - | - |
| 1777535719 | 21.67° C | 49% | 1016.1 hPa | - | - | - | - |
| 1777535119 | 21.11° C | 48% | 1016.1 hPa | - | - | - | - |
| 1777534519 | 20.56° C | 49% | 1016.2 hPa | - | - | - | - |
* Rain since midnight (hover to see other rain measurements)
** Current wind speed in m/s (hover to see current wind gust speed)